sensor_id;sensor_type;location;lat;lon;timestamp;P1;durP1;ratioP1;P2;durP2;ratioP2
40649;SDS011;26342;42.826;23.992;2023-11-19T00:01:31;0.88;;;0.40;;
40649;SDS011;26342;42.826;23.992;2023-11-19T00:03:57;0.22;;;0.10;;
40649;SDS011;26342;42.826;23.992;2023-11-19T00:06:23;3.10;;;0.60;;
40649;SDS011;26342;42.826;23.992;2023-11-19T00:08:48;0.40;;;0.28;;
40649;SDS011;26342;42.826;23.992;2023-11-19T00:11:15;1.48;;;0.17;;
40649;SDS011;26342;42.826;23.992;2023-11-19T00:13:40;1.10;;;0.73;;
40649;SDS011;26342;42.826;23.992;2023-11-19T00:16:06;0.98;;;0.40;;
40649;SDS011;26342;42.826;23.992;2023-11-19T00:18:33;0.20;;;0.20;;
40649;SDS011;26342;42.826;23.992;2023-11-19T00:20:58;2.30;;;0.77;;
40649;SDS011;26342;42.826;23.992;2023-11-19T00:23:24;0.25;;;0.25;;
40649;SDS011;26342;42.826;23.992;2023-11-19T00:25:49;0.80;;;0.50;;
40649;SDS011;26342;42.826;23.992;2023-11-19T00:28:14;0.30;;;0.30;;
40649;SDS011;26342;42.826;23.992;2023-11-19T00:30:40;0.10;;;0.10;;
40649;SDS011;26342;42.826;23.992;2023-11-19T00:33:08;1.17;;;0.45;;
40649;SDS011;26342;42.826;23.992;2023-11-19T00:35:33;0.17;;;0.17;;
40649;SDS011;26342;42.826;23.992;2023-11-19T00:37:59;0.52;;;0.28;;
40649;SDS011;26342;42.826;23.992;2023-11-19T00:40:25;0.00;;;0.00;;
40649;SDS011;26342;42.826;23.992;2023-11-19T00:42:50;0.32;;;0.30;;
40649;SDS011;26342;42.826;23.992;2023-11-19T00:45:16;0.25;;;0.17;;
40649;SDS011;26342;42.826;23.992;2023-11-19T00:47:41;4.47;;;0.57;;
40649;SDS011;26342;42.826;23.992;2023-11-19T00:50:07;0.05;;;0.05;;
40649;SDS011;26342;42.826;23.992;2023-11-19T00:52:36;0.35;;;0.20;;
40649;SDS011;26342;42.826;23.992;2023-11-19T00:55:02;1.65;;;0.57;;
40649;SDS011;26342;42.826;23.992;2023-11-19T00:57:29;0.22;;;0.20;;
40649;SDS011;26342;42.826;23.992;2023-11-19T00:59:55;0.38;;;0.30;;
40649;SDS011;26342;42.826;23.992;2023-11-19T01:02:20;1.42;;;0.47;;
40649;SDS011;26342;42.826;23.992;2023-11-19T01:04:46;0.57;;;0.57;;
40649;SDS011;26342;42.826;23.992;2023-11-19T01:07:11;1.08;;;0.20;;
40649;SDS011;26342;42.826;23.992;2023-11-19T01:09:38;1.05;;;0.32;;
40649;SDS011;26342;42.826;23.992;2023-11-19T01:12:03;1.95;;;0.20;;
40649;SDS011;26342;42.826;23.992;2023-11-19T01:14:29;0.60;;;0.30;;
40649;SDS011;26342;42.826;23.992;2023-11-19T01:16:55;0.82;;;0.40;;
40649;SDS011;26342;42.826;23.992;2023-11-19T01:19:21;0.28;;;0.28;;
40649;SDS011;26342;42.826;23.992;2023-11-19T01:21:47;0.88;;;0.45;;
40649;SDS011;26342;42.826;23.992;2023-11-19T01:24:12;0.30;;;0.30;;
40649;SDS011;26342;42.826;23.992;2023-11-19T01:26:39;0.90;;;0.80;;
40649;SDS011;26342;42.826;23.992;2023-11-19T01:29:10;0.55;;;0.28;;
40649;SDS011;26342;42.826;23.992;2023-11-19T01:31:39;1.05;;;0.60;;
40649;SDS011;26342;42.826;23.992;2023-11-19T01:34:07;0.68;;;0.50;;
40649;SDS011;26342;42.826;23.992;2023-11-19T01:36:33;0.93;;;0.40;;
40649;SDS011;26342;42.826;23.992;2023-11-19T01:38:58;0.40;;;0.20;;
40649;SDS011;26342;42.826;23.992;2023-11-19T01:41:24;0.63;;;0.30;;
40649;SDS011;26342;42.826;23.992;2023-11-19T01:43:50;0.43;;;0.30;;
40649;SDS011;26342;42.826;23.992;2023-11-19T01:46:15;0.52;;;0.52;;
40649;SDS011;26342;42.826;23.992;2023-11-19T01:48:41;0.88;;;0.43;;
40649;SDS011;26342;42.826;23.992;2023-11-19T01:51:09;0.30;;;0.30;;
40649;SDS011;26342;42.826;23.992;2023-11-19T01:53:36;0.40;;;0.40;;
40649;SDS011;26342;42.826;23.992;2023-11-19T01:56:04;1.75;;;0.20;;
40649;SDS011;26342;42.826;23.992;2023-11-19T01:58:34;2.35;;;0.20;;
40649;SDS011;26342;42.826;23.992;2023-11-19T02:01:04;0.80;;;0.30;;
40649;SDS011;26342;42.826;23.992;2023-11-19T02:03:31;0.35;;;0.20;;
40649;SDS011;26342;42.826;23.992;2023-11-19T02:05:57;0.50;;;0.50;;
40649;SDS011;26342;42.826;23.992;2023-11-19T02:08:24;0.28;;;0.28;;
40649;SDS011;26342;42.826;23.992;2023-11-19T02:10:49;0.80;;;0.40;;
40649;SDS011;26342;42.826;23.992;2023-11-19T02:13:14;0.52;;;0.40;;
40649;SDS011;26342;42.826;23.992;2023-11-19T02:15:41;0.43;;;0.32;;
40649;SDS011;26342;42.826;23.992;2023-11-19T02:18:49;0.75;;;0.38;;
40649;SDS011;26342;42.826;23.992;2023-11-19T02:20:56;0.30;;;0.30;;
40649;SDS011;26342;42.826;23.992;2023-11-19T02:23:22;0.90;;;0.40;;
40649;SDS011;26342;42.826;23.992;2023-11-19T02:28:48;1.17;;;0.50;;
40649;SDS011;26342;42.826;23.992;2023-11-19T02:31:13;0.35;;;0.30;;
40649;SDS011;26342;42.826;23.992;2023-11-19T02:33:39;0.90;;;0.40;;
40649;SDS011;26342;42.826;23.992;2023-11-19T02:36:06;0.25;;;0.25;;
40649;SDS011;26342;42.826;23.992;2023-11-19T02:38:32;0.20;;;0.17;;
40649;SDS011;26342;42.826;23.992;2023-11-19T02:41:04;0.45;;;0.30;;
40649;SDS011;26342;42.826;23.992;2023-11-19T02:43:33;0.73;;;0.30;;
40649;SDS011;26342;42.826;23.992;2023-11-19T02:46:02;0.95;;;0.65;;
40649;SDS011;26342;42.826;23.992;2023-11-19T02:48:31;2.03;;;0.55;;
40649;SDS011;26342;42.826;23.992;2023-11-19T02:50:57;0.75;;;0.52;;
40649;SDS011;26342;42.826;23.992;2023-11-19T02:53:23;0.50;;;0.20;;
40649;SDS011;26342;42.826;23.992;2023-11-19T02:55:49;1.15;;;0.60;;
40649;SDS011;26342;42.826;23.992;2023-11-19T02:58:16;0.35;;;0.28;;
40649;SDS011;26342;42.826;23.992;2023-11-19T03:00:49;1.20;;;0.47;;
40649;SDS011;26342;42.826;23.992;2023-11-19T03:03:22;1.55;;;0.52;;
40649;SDS011;26342;42.826;23.992;2023-11-19T03:05:56;0.30;;;0.30;;
40649;SDS011;26342;42.826;23.992;2023-11-19T03:08:22;1.52;;;0.93;;
40649;SDS011;26342;42.826;23.992;2023-11-19T03:10:47;3.47;;;1.05;;
40649;SDS011;26342;42.826;23.992;2023-11-19T03:13:13;1.02;;;0.65;;
40649;SDS011;26342;42.826;23.992;2023-11-19T03:15:39;0.77;;;0.50;;
40649;SDS011;26342;42.826;23.992;2023-11-19T03:18:05;1.60;;;0.85;;
40649;SDS011;26342;42.826;23.992;2023-11-19T03:20:30;0.68;;;0.68;;
40649;SDS011;26342;42.826;23.992;2023-11-19T03:22:57;1.88;;;1.02;;
40649;SDS011;26342;42.826;23.992;2023-11-19T03:25:26;1.15;;;0.68;;
40649;SDS011;26342;42.826;23.992;2023-11-19T03:27:58;0.73;;;0.50;;
40649;SDS011;26342;42.826;23.992;2023-11-19T03:30:24;0.10;;;0.10;;
40649;SDS011;26342;42.826;23.992;2023-11-19T03:32:49;0.75;;;0.40;;
40649;SDS011;26342;42.826;23.992;2023-11-19T03:35:15;0.30;;;0.30;;
40649;SDS011;26342;42.826;23.992;2023-11-19T03:37:40;1.50;;;0.82;;
40649;SDS011;26342;42.826;23.992;2023-11-19T03:40:06;0.98;;;0.60;;
40649;SDS011;26342;42.826;23.992;2023-11-19T03:42:31;5.20;;;1.27;;
40649;SDS011;26342;42.826;23.992;2023-11-19T03:44:57;4.32;;;1.73;;
40649;SDS011;26342;42.826;23.992;2023-11-19T03:47:22;0.40;;;0.40;;
40649;SDS011;26342;42.826;23.992;2023-11-19T03:49:48;0.45;;;0.40;;
40649;SDS011;26342;42.826;23.992;2023-11-19T03:52:14;0.20;;;0.20;;
40649;SDS011;26342;42.826;23.992;2023-11-19T03:54:39;1.13;;;0.85;;
40649;SDS011;26342;42.826;23.992;2023-11-19T03:57:05;1.42;;;0.73;;
40649;SDS011;26342;42.826;23.992;2023-11-19T03:59:30;2.30;;;0.55;;
40649;SDS011;26342;42.826;23.992;2023-11-19T04:01:55;0.70;;;0.47;;
40649;SDS011;26342;42.826;23.992;2023-11-19T04:04:21;1.27;;;0.70;;
40649;SDS011;26342;42.826;23.992;2023-11-19T04:06:47;0.20;;;0.20;;
40649;SDS011;26342;42.826;23.992;2023-11-19T04:09:13;0.52;;;0.50;;
40649;SDS011;26342;42.826;23.992;2023-11-19T04:11:38;1.23;;;0.35;;
40649;SDS011;26342;42.826;23.992;2023-11-19T04:14:05;0.13;;;0.10;;
40649;SDS011;26342;42.826;23.992;2023-11-19T04:16:30;1.00;;;0.32;;
40649;SDS011;26342;42.826;23.992;2023-11-19T04:18:56;0.30;;;0.30;;
40649;SDS011;26342;42.826;23.992;2023-11-19T04:21:21;2.55;;;0.77;;
40649;SDS011;26342;42.826;23.992;2023-11-19T04:23:48;3.60;;;1.52;;
40649;SDS011;26342;42.826;23.992;2023-11-19T04:26:13;1.70;;;0.90;;
40649;SDS011;26342;42.826;23.992;2023-11-19T04:28:39;3.28;;;1.00;;
40649;SDS011;26342;42.826;23.992;2023-11-19T04:31:05;1.38;;;0.90;;
40649;SDS011;26342;42.826;23.992;2023-11-19T04:33:31;1.02;;;0.88;;
40649;SDS011;26342;42.826;23.992;2023-11-19T04:35:56;1.30;;;0.60;;
40649;SDS011;26342;42.826;23.992;2023-11-19T04:38:21;2.63;;;0.85;;
40649;SDS011;26342;42.826;23.992;2023-11-19T04:40:47;0.90;;;0.38;;
40649;SDS011;26342;42.826;23.992;2023-11-19T04:43:12;0.60;;;0.50;;
40649;SDS011;26342;42.826;23.992;2023-11-19T04:45:38;0.40;;;0.30;;
40649;SDS011;26342;42.826;23.992;2023-11-19T04:48:04;0.52;;;0.32;;
40649;SDS011;26342;42.826;23.992;2023-11-19T04:50:30;0.13;;;0.13;;
40649;SDS011;26342;42.826;23.992;2023-11-19T04:52:55;0.85;;;0.38;;
40649;SDS011;26342;42.826;23.992;2023-11-19T04:55:21;1.05;;;0.60;;
40649;SDS011;26342;42.826;23.992;2023-11-19T04:57:46;0.70;;;0.47;;
40649;SDS011;26342;42.826;23.992;2023-11-19T05:00:12;2.05;;;1.27;;
40649;SDS011;26342;42.826;23.992;2023-11-19T05:02:38;1.65;;;0.93;;
40649;SDS011;26342;42.826;23.992;2023-11-19T05:05:04;1.13;;;0.90;;
40649;SDS011;26342;42.826;23.992;2023-11-19T05:07:30;2.90;;;0.93;;
40649;SDS011;26342;42.826;23.992;2023-11-19T05:09:55;1.00;;;0.52;;
40649;SDS011;26342;42.826;23.992;2023-11-19T05:12:21;3.90;;;1.70;;
40649;SDS011;26342;42.826;23.992;2023-11-19T05:14:47;0.50;;;0.40;;
40649;SDS011;26342;42.826;23.992;2023-11-19T05:17:16;1.17;;;0.93;;
40649;SDS011;26342;42.826;23.992;2023-11-19T05:19:43;1.00;;;0.55;;
40649;SDS011;26342;42.826;23.992;2023-11-19T05:22:08;0.22;;;0.22;;
40649;SDS011;26342;42.826;23.992;2023-11-19T05:24:34;2.53;;;1.27;;
40649;SDS011;26342;42.826;23.992;2023-11-19T05:27:00;3.72;;;1.10;;
40649;SDS011;26342;42.826;23.992;2023-11-19T05:29:26;8.77;;;2.92;;
40649;SDS011;26342;42.826;23.992;2023-11-19T05:31:52;2.13;;;1.48;;
40649;SDS011;26342;42.826;23.992;2023-11-19T05:34:19;1.83;;;1.20;;
40649;SDS011;26342;42.826;23.992;2023-11-19T05:36:45;1.45;;;0.80;;
40649;SDS011;26342;42.826;23.992;2023-11-19T05:39:10;3.90;;;1.63;;
40649;SDS011;26342;42.826;23.992;2023-11-19T05:41:36;0.30;;;0.28;;
40649;SDS011;26342;42.826;23.992;2023-11-19T05:44:01;2.35;;;1.40;;
40649;SDS011;26342;42.826;23.992;2023-11-19T05:46:27;8.40;;;3.67;;
40649;SDS011;26342;42.826;23.992;2023-11-19T05:48:52;4.30;;;2.13;;
40649;SDS011;26342;42.826;23.992;2023-11-19T05:51:18;4.75;;;2.13;;
40649;SDS011;26342;42.826;23.992;2023-11-19T05:53:43;6.13;;;2.90;;
40649;SDS011;26342;42.826;23.992;2023-11-19T05:56:10;9.07;;;3.95;;
40649;SDS011;26342;42.826;23.992;2023-11-19T05:58:36;12.63;;;4.78;;
40649;SDS011;26342;42.826;23.992;2023-11-19T06:01:02;9.90;;;3.13;;
40649;SDS011;26342;42.826;23.992;2023-11-19T06:03:29;10.63;;;4.60;;
40649;SDS011;26342;42.826;23.992;2023-11-19T06:05:55;1.85;;;1.30;;
40649;SDS011;26342;42.826;23.992;2023-11-19T06:08:20;4.40;;;1.95;;
40649;SDS011;26342;42.826;23.992;2023-11-19T06:10:46;1.58;;;1.25;;
40649;SDS011;26342;42.826;23.992;2023-11-19T06:13:12;0.57;;;0.55;;
40649;SDS011;26342;42.826;23.992;2023-11-19T06:15:40;2.58;;;1.10;;
40649;SDS011;26342;42.826;23.992;2023-11-19T06:18:06;2.75;;;1.40;;
40649;SDS011;26342;42.826;23.992;2023-11-19T06:20:32;3.75;;;2.03;;
40649;SDS011;26342;42.826;23.992;2023-11-19T06:22:58;1.75;;;1.45;;
40649;SDS011;26342;42.826;23.992;2023-11-19T06:25:24;6.57;;;3.30;;
40649;SDS011;26342;42.826;23.992;2023-11-19T06:27:49;3.28;;;1.48;;
40649;SDS011;26342;42.826;23.992;2023-11-19T06:30:15;3.33;;;1.55;;
40649;SDS011;26342;42.826;23.992;2023-11-19T06:32:41;1.98;;;1.27;;
40649;SDS011;26342;42.826;23.992;2023-11-19T06:35:07;2.45;;;1.77;;
40649;SDS011;26342;42.826;23.992;2023-11-19T06:37:32;2.05;;;1.10;;
40649;SDS011;26342;42.826;23.992;2023-11-19T06:39:58;5.00;;;2.08;;
40649;SDS011;26342;42.826;23.992;2023-11-19T06:42:24;2.45;;;1.05;;
40649;SDS011;26342;42.826;23.992;2023-11-19T06:44:49;6.47;;;2.58;;
40649;SDS011;26342;42.826;23.992;2023-11-19T06:47:15;1.05;;;0.75;;
40649;SDS011;26342;42.826;23.992;2023-11-19T06:49:43;1.38;;;0.90;;
40649;SDS011;26342;42.826;23.992;2023-11-19T06:52:09;1.20;;;1.10;;
40649;SDS011;26342;42.826;23.992;2023-11-19T06:54:35;2.55;;;1.15;;
40649;SDS011;26342;42.826;23.992;2023-11-19T06:57:00;3.42;;;1.40;;
40649;SDS011;26342;42.826;23.992;2023-11-19T06:59:26;5.03;;;1.60;;
40649;SDS011;26342;42.826;23.992;2023-11-19T07:01:51;1.63;;;0.98;;
40649;SDS011;26342;42.826;23.992;2023-11-19T07:04:17;2.10;;;1.40;;
40649;SDS011;26342;42.826;23.992;2023-11-19T07:06:42;2.42;;;1.27;;
40649;SDS011;26342;42.826;23.992;2023-11-19T07:09:08;4.47;;;2.05;;
40649;SDS011;26342;42.826;23.992;2023-11-19T07:11:39;2.25;;;1.25;;
40649;SDS011;26342;42.826;23.992;2023-11-19T07:14:06;2.30;;;1.80;;
40649;SDS011;26342;42.826;23.992;2023-11-19T07:16:35;1.65;;;1.00;;
40649;SDS011;26342;42.826;23.992;2023-11-19T07:19:04;4.15;;;1.90;;
40649;SDS011;26342;42.826;23.992;2023-11-19T07:21:30;3.47;;;1.85;;
40649;SDS011;26342;42.826;23.992;2023-11-19T07:23:56;3.65;;;1.70;;
40649;SDS011;26342;42.826;23.992;2023-11-19T07:26:22;5.03;;;1.75;;
40649;SDS011;26342;42.826;23.992;2023-11-19T07:28:48;3.42;;;2.22;;
40649;SDS011;26342;42.826;23.992;2023-11-19T07:31:15;10.40;;;2.08;;
40649;SDS011;26342;42.826;23.992;2023-11-19T07:33:40;4.93;;;1.92;;
40649;SDS011;26342;42.826;23.992;2023-11-19T07:36:09;2.85;;;1.80;;
40649;SDS011;26342;42.826;23.992;2023-11-19T07:38:35;5.00;;;2.85;;
40649;SDS011;26342;42.826;23.992;2023-11-19T07:41:01;8.20;;;3.90;;
40649;SDS011;26342;42.826;23.992;2023-11-19T07:43:26;5.35;;;3.28;;
40649;SDS011;26342;42.826;23.992;2023-11-19T07:45:52;3.33;;;1.67;;
40649;SDS011;26342;42.826;23.992;2023-11-19T07:48:17;3.47;;;1.27;;
40649;SDS011;26342;42.826;23.992;2023-11-19T07:50:47;6.78;;;3.50;;
40649;SDS011;26342;42.826;23.992;2023-11-19T07:53:15;8.68;;;3.05;;
40649;SDS011;26342;42.826;23.992;2023-11-19T07:55:41;2.80;;;1.67;;
40649;SDS011;26342;42.826;23.992;2023-11-19T07:58:06;1.67;;;0.80;;
40649;SDS011;26342;42.826;23.992;2023-11-19T08:00:32;2.65;;;1.30;;
40649;SDS011;26342;42.826;23.992;2023-11-19T08:02:57;10.63;;;3.97;;
40649;SDS011;26342;42.826;23.992;2023-11-19T08:05:23;2.70;;;1.60;;
40649;SDS011;26342;42.826;23.992;2023-11-19T08:07:50;1.35;;;0.70;;
40649;SDS011;26342;42.826;23.992;2023-11-19T08:10:18;2.88;;;1.98;;
40649;SDS011;26342;42.826;23.992;2023-11-19T08:12:44;3.08;;;2.03;;
40649;SDS011;26342;42.826;23.992;2023-11-19T08:15:09;3.22;;;1.55;;
40649;SDS011;26342;42.826;23.992;2023-11-19T08:17:35;4.93;;;2.17;;
40649;SDS011;26342;42.826;23.992;2023-11-19T08:20:01;9.23;;;2.47;;
40649;SDS011;26342;42.826;23.992;2023-11-19T08:22:28;1.88;;;1.27;;
40649;SDS011;26342;42.826;23.992;2023-11-19T08:24:53;3.22;;;1.50;;
40649;SDS011;26342;42.826;23.992;2023-11-19T08:27:18;3.85;;;1.48;;
40649;SDS011;26342;42.826;23.992;2023-11-19T08:29:44;2.85;;;1.67;;
40649;SDS011;26342;42.826;23.992;2023-11-19T08:32:09;1.60;;;1.00;;
40649;SDS011;26342;42.826;23.992;2023-11-19T08:34:36;0.75;;;0.68;;
40649;SDS011;26342;42.826;23.992;2023-11-19T08:37:01;1.38;;;1.13;;
40649;SDS011;26342;42.826;23.992;2023-11-19T08:39:27;3.45;;;1.45;;
40649;SDS011;26342;42.826;23.992;2023-11-19T08:41:52;0.88;;;0.70;;
40649;SDS011;26342;42.826;23.992;2023-11-19T08:44:17;2.83;;;1.35;;
40649;SDS011;26342;42.826;23.992;2023-11-19T08:46:50;2.35;;;1.10;;
40649;SDS011;26342;42.826;23.992;2023-11-19T08:49:16;1.38;;;0.75;;
40649;SDS011;26342;42.826;23.992;2023-11-19T08:51:43;3.70;;;2.33;;
40649;SDS011;26342;42.826;23.992;2023-11-19T08:54:09;3.10;;;1.60;;
40649;SDS011;26342;42.826;23.992;2023-11-19T08:56:35;2.58;;;1.20;;
40649;SDS011;26342;42.826;23.992;2023-11-19T08:59:01;1.40;;;1.10;;
40649;SDS011;26342;42.826;23.992;2023-11-19T09:01:27;2.05;;;0.95;;
40649;SDS011;26342;42.826;23.992;2023-11-19T09:03:53;4.03;;;1.33;;
40649;SDS011;26342;42.826;23.992;2023-11-19T09:06:18;8.93;;;2.65;;
40649;SDS011;26342;42.826;23.992;2023-11-19T09:08:43;3.78;;;1.50;;
40649;SDS011;26342;42.826;23.992;2023-11-19T09:11:09;1.80;;;0.65;;
40649;SDS011;26342;42.826;23.992;2023-11-19T09:13:35;1.30;;;1.00;;
40649;SDS011;26342;42.826;23.992;2023-11-19T09:16:01;2.10;;;1.20;;
40649;SDS011;26342;42.826;23.992;2023-11-19T09:18:30;2.08;;;0.85;;
40649;SDS011;26342;42.826;23.992;2023-11-19T09:20:57;3.20;;;1.10;;
40649;SDS011;26342;42.826;23.992;2023-11-19T09:23:22;0.70;;;0.60;;
40649;SDS011;26342;42.826;23.992;2023-11-19T09:25:50;1.55;;;0.73;;
40649;SDS011;26342;42.826;23.992;2023-11-19T09:28:15;1.85;;;0.82;;
40649;SDS011;26342;42.826;23.992;2023-11-19T09:30:41;1.63;;;0.70;;
40649;SDS011;26342;42.826;23.992;2023-11-19T09:33:06;1.83;;;1.00;;
40649;SDS011;26342;42.826;23.992;2023-11-19T09:35:31;3.83;;;1.27;;
40649;SDS011;26342;42.826;23.992;2023-11-19T09:37:57;0.80;;;0.57;;
40649;SDS011;26342;42.826;23.992;2023-11-19T09:40:23;1.15;;;0.77;;
40649;SDS011;26342;42.826;23.992;2023-11-19T09:42:48;1.95;;;1.27;;
40649;SDS011;26342;42.826;23.992;2023-11-19T09:45:15;3.97;;;1.70;;
40649;SDS011;26342;42.826;23.992;2023-11-19T09:47:43;1.83;;;1.20;;
40649;SDS011;26342;42.826;23.992;2023-11-19T09:50:21;1.73;;;0.65;;
40649;SDS011;26342;42.826;23.992;2023-11-19T09:52:47;0.50;;;0.38;;
40649;SDS011;26342;42.826;23.992;2023-11-19T09:55:12;0.68;;;0.20;;
40649;SDS011;26342;42.826;23.992;2023-11-19T09:57:39;2.38;;;1.27;;
40649;SDS011;26342;42.826;23.992;2023-11-19T10:00:06;0.80;;;0.50;;
40649;SDS011;26342;42.826;23.992;2023-11-19T10:02:32;1.23;;;0.73;;
40649;SDS011;26342;42.826;23.992;2023-11-19T10:05:02;0.73;;;0.50;;
40649;SDS011;26342;42.826;23.992;2023-11-19T10:07:31;2.30;;;0.60;;
40649;SDS011;26342;42.826;23.992;2023-11-19T10:10:00;0.88;;;0.70;;
40649;SDS011;26342;42.826;23.992;2023-11-19T10:12:29;1.10;;;0.93;;
40649;SDS011;26342;42.826;23.992;2023-11-19T10:14:56;0.93;;;0.82;;
40649;SDS011;26342;42.826;23.992;2023-11-19T10:17:32;0.68;;;0.68;;
40649;SDS011;26342;42.826;23.992;2023-11-19T10:19:58;0.80;;;0.55;;
40649;SDS011;26342;42.826;23.992;2023-11-19T10:22:24;0.60;;;0.40;;
40649;SDS011;26342;42.826;23.992;2023-11-19T10:24:51;1.17;;;0.68;;
40649;SDS011;26342;42.826;23.992;2023-11-19T10:27:17;2.50;;;0.85;;
40649;SDS011;26342;42.826;23.992;2023-11-19T10:29:46;3.85;;;1.20;;
40649;SDS011;26342;42.826;23.992;2023-11-19T10:32:12;1.75;;;0.60;;
40649;SDS011;26342;42.826;23.992;2023-11-19T10:34:39;0.57;;;0.30;;
40649;SDS011;26342;42.826;23.992;2023-11-19T10:37:06;0.60;;;0.35;;
40649;SDS011;26342;42.826;23.992;2023-11-19T10:39:51;0.90;;;0.65;;
40649;SDS011;26342;42.826;23.992;2023-11-19T10:42:20;0.80;;;0.50;;
40649;SDS011;26342;42.826;23.992;2023-11-19T10:44:46;0.65;;;0.40;;
40649;SDS011;26342;42.826;23.992;2023-11-19T10:47:13;0.68;;;0.30;;
40649;SDS011;26342;42.826;23.992;2023-11-19T10:49:40;0.30;;;0.25;;
40649;SDS011;26342;42.826;23.992;2023-11-19T10:52:06;0.30;;;0.30;;
40649;SDS011;26342;42.826;23.992;2023-11-19T10:54:34;2.28;;;0.68;;
40649;SDS011;26342;42.826;23.992;2023-11-19T10:57:00;1.75;;;0.52;;
40649;SDS011;26342;42.826;23.992;2023-11-19T10:59:28;0.98;;;0.63;;
40649;SDS011;26342;42.826;23.992;2023-11-19T11:01:56;0.22;;;0.20;;
40649;SDS011;26342;42.826;23.992;2023-11-19T11:04:25;0.65;;;0.50;;
40649;SDS011;26342;42.826;23.992;2023-11-19T11:06:56;0.80;;;0.80;;
40649;SDS011;26342;42.826;23.992;2023-11-19T11:09:25;0.80;;;0.45;;
40649;SDS011;26342;42.826;23.992;2023-11-19T11:11:52;0.75;;;0.63;;
40649;SDS011;26342;42.826;23.992;2023-11-19T11:14:22;0.80;;;0.40;;
40649;SDS011;26342;42.826;23.992;2023-11-19T11:16:49;1.42;;;0.65;;
40649;SDS011;26342;42.826;23.992;2023-11-19T11:19:15;1.13;;;0.90;;
40649;SDS011;26342;42.826;23.992;2023-11-19T11:21:43;0.52;;;0.35;;
40649;SDS011;26342;42.826;23.992;2023-11-19T11:24:23;0.70;;;0.63;;
40649;SDS011;26342;42.826;23.992;2023-11-19T11:27:19;1.38;;;0.60;;
40649;SDS011;26342;42.826;23.992;2023-11-19T11:32:48;1.85;;;0.90;;
40649;SDS011;26342;42.826;23.992;2023-11-19T11:37:58;2.95;;;0.85;;
40649;SDS011;26342;42.826;23.992;2023-11-19T11:40:28;2.57;;;0.77;;
40649;SDS011;26342;42.826;23.992;2023-11-19T11:42:53;3.92;;;0.70;;
40649;SDS011;26342;42.826;23.992;2023-11-19T11:45:19;0.70;;;0.70;;
40649;SDS011;26342;42.826;23.992;2023-11-19T11:48:13;1.52;;;1.23;;
40649;SDS011;26342;42.826;23.992;2023-11-19T11:50:47;0.57;;;0.47;;
40649;SDS011;26342;42.826;23.992;2023-11-19T11:53:18;0.95;;;0.60;;
40649;SDS011;26342;42.826;23.992;2023-11-19T11:58:13;0.57;;;0.50;;
40649;SDS011;26342;42.826;23.992;2023-11-19T12:00:40;3.70;;;2.20;;
40649;SDS011;26342;42.826;23.992;2023-11-19T12:03:07;2.92;;;1.60;;
40649;SDS011;26342;42.826;23.992;2023-11-19T12:05:34;2.15;;;1.58;;
40649;SDS011;26342;42.826;23.992;2023-11-19T12:08:04;0.65;;;0.45;;
40649;SDS011;26342;42.826;23.992;2023-11-19T12:10:32;4.03;;;2.15;;
40649;SDS011;26342;42.826;23.992;2023-11-19T12:13:19;27.35;;;2.88;;
40649;SDS011;26342;42.826;23.992;2023-11-19T12:18:23;1.65;;;1.23;;
40649;SDS011;26342;42.826;23.992;2023-11-19T12:20:48;1.33;;;0.80;;
40649;SDS011;26342;42.826;23.992;2023-11-19T12:23:14;2.90;;;2.15;;
40649;SDS011;26342;42.826;23.992;2023-11-19T12:25:39;1.25;;;0.93;;
40649;SDS011;26342;42.826;23.992;2023-11-19T12:28:05;6.00;;;1.67;;
40649;SDS011;26342;42.826;23.992;2023-11-19T12:30:37;2.38;;;0.95;;
40649;SDS011;26342;42.826;23.992;2023-11-19T12:33:07;4.18;;;2.10;;
40649;SDS011;26342;42.826;23.992;2023-11-19T12:35:42;2.35;;;1.10;;
40649;SDS011;26342;42.826;23.992;2023-11-19T12:38:19;2.05;;;1.52;;
40649;SDS011;26342;42.826;23.992;2023-11-19T12:40:47;5.05;;;2.25;;
40649;SDS011;26342;42.826;23.992;2023-11-19T12:43:28;5.45;;;2.67;;
40649;SDS011;26342;42.826;23.992;2023-11-19T12:45:53;7.25;;;3.05;;
40649;SDS011;26342;42.826;23.992;2023-11-19T12:48:19;1.65;;;1.10;;
40649;SDS011;26342;42.826;23.992;2023-11-19T12:53:20;4.10;;;1.33;;
40649;SDS011;26342;42.826;23.992;2023-11-19T12:55:46;1.58;;;1.13;;
40649;SDS011;26342;42.826;23.992;2023-11-19T12:58:27;0.55;;;0.38;;
40649;SDS011;26342;42.826;23.992;2023-11-19T13:01:03;3.85;;;1.92;;
40649;SDS011;26342;42.826;23.992;2023-11-19T13:03:33;1.05;;;0.60;;
40649;SDS011;26342;42.826;23.992;2023-11-19T13:06:04;0.68;;;0.63;;
40649;SDS011;26342;42.826;23.992;2023-11-19T13:08:46;8.75;;;4.70;;
40649;SDS011;26342;42.826;23.992;2023-11-19T13:11:15;4.13;;;0.90;;
40649;SDS011;26342;42.826;23.992;2023-11-19T13:13:59;0.40;;;0.40;;
40649;SDS011;26342;42.826;23.992;2023-11-19T13:16:29;2.03;;;1.17;;
40649;SDS011;26342;42.826;23.992;2023-11-19T13:18:55;5.03;;;2.35;;
40649;SDS011;26342;42.826;23.992;2023-11-19T13:21:20;2.47;;;1.58;;
40649;SDS011;26342;42.826;23.992;2023-11-19T13:23:46;2.35;;;1.35;;
40649;SDS011;26342;42.826;23.992;2023-11-19T13:26:11;3.58;;;1.33;;
40649;SDS011;26342;42.826;23.992;2023-11-19T13:28:38;2.58;;;0.60;;
40649;SDS011;26342;42.826;23.992;2023-11-19T13:31:04;0.77;;;0.65;;
40649;SDS011;26342;42.826;23.992;2023-11-19T13:33:30;1.25;;;0.88;;
40649;SDS011;26342;42.826;23.992;2023-11-19T13:35:55;1.17;;;0.75;;
40649;SDS011;26342;42.826;23.992;2023-11-19T13:38:21;2.42;;;1.40;;
40649;SDS011;26342;42.826;23.992;2023-11-19T13:40:48;0.88;;;0.65;;
40649;SDS011;26342;42.826;23.992;2023-11-19T13:43:14;0.68;;;0.50;;
40649;SDS011;26342;42.826;23.992;2023-11-19T13:45:40;3.30;;;1.95;;
40649;SDS011;26342;42.826;23.992;2023-11-19T13:48:05;3.80;;;1.88;;
40649;SDS011;26342;42.826;23.992;2023-11-19T13:50:31;5.70;;;1.48;;
40649;SDS011;26342;42.826;23.992;2023-11-19T13:52:57;4.30;;;1.10;;
40649;SDS011;26342;42.826;23.992;2023-11-19T13:55:22;1.38;;;0.80;;
40649;SDS011;26342;42.826;23.992;2023-11-19T13:57:48;2.15;;;1.30;;
40649;SDS011;26342;42.826;23.992;2023-11-19T14:00:14;4.03;;;1.95;;
40649;SDS011;26342;42.826;23.992;2023-11-19T14:02:44;10.60;;;4.15;;
40649;SDS011;26342;42.826;23.992;2023-11-19T14:05:13;3.55;;;1.83;;
40649;SDS011;26342;42.826;23.992;2023-11-19T14:07:40;9.57;;;5.72;;
40649;SDS011;26342;42.826;23.992;2023-11-19T14:10:06;0.68;;;0.68;;
40649;SDS011;26342;42.826;23.992;2023-11-19T14:12:34;2.58;;;1.38;;
40649;SDS011;26342;42.826;23.992;2023-11-19T14:15:01;3.92;;;1.90;;
40649;SDS011;26342;42.826;23.992;2023-11-19T14:17:27;4.18;;;2.40;;
40649;SDS011;26342;42.826;23.992;2023-11-19T14:19:53;2.78;;;1.83;;
40649;SDS011;26342;42.826;23.992;2023-11-19T14:22:19;4.03;;;1.55;;
40649;SDS011;26342;42.826;23.992;2023-11-19T14:24:44;1.75;;;0.75;;
40649;SDS011;26342;42.826;23.992;2023-11-19T14:27:10;0.75;;;0.55;;
40649;SDS011;26342;42.826;23.992;2023-11-19T14:29:36;1.10;;;0.88;;
40649;SDS011;26342;42.826;23.992;2023-11-19T14:32:02;4.88;;;2.03;;
40649;SDS011;26342;42.826;23.992;2023-11-19T14:34:31;9.80;;;4.53;;
40649;SDS011;26342;42.826;23.992;2023-11-19T14:36:57;13.55;;;7.63;;
40649;SDS011;26342;42.826;23.992;2023-11-19T14:39:24;23.63;;;6.55;;
40649;SDS011;26342;42.826;23.992;2023-11-19T14:41:50;6.65;;;3.22;;
40649;SDS011;26342;42.826;23.992;2023-11-19T14:44:16;6.38;;;2.10;;
40649;SDS011;26342;42.826;23.992;2023-11-19T14:46:42;4.95;;;2.22;;
40649;SDS011;26342;42.826;23.992;2023-11-19T14:49:07;4.45;;;1.85;;